sensor_id;sensor_type;location;lat;lon;timestamp;pressure;altitude;pressure_sealevel;temperature;humidity
70198;BME280;57582;-34.876;138.628;2023-03-22T00:01:58;101237;;;25.79;41.83
70198;BME280;57582;-34.876;138.628;2023-03-22T00:04:58;101234;;;25.64;40.85
70198;BME280;57582;-34.876;138.628;2023-03-22T00:07:58;101223;;;25.62;39.85
70198;BME280;57582;-34.876;138.628;2023-03-22T00:10:58;101230;;;25.42;41.10
70198;BME280;57582;-34.876;138.628;2023-03-22T00:13:58;101231;;;25.70;40.87
70198;BME280;57582;-34.876;138.628;2023-03-22T00:16:58;101218;;;25.81;40.65
70198;BME280;57582;-34.876;138.628;2023-03-22T00:19:58;101221;;;26.06;40.96
70198;BME280;57582;-34.876;138.628;2023-03-22T00:22:58;101215;;;26.06;40.43
70198;BME280;57582;-34.876;138.628;2023-03-22T00:25:58;101212;;;26.04;40.86
70198;BME280;57582;-34.876;138.628;2023-03-22T00:28:58;101211;;;26.14;40.01
70198;BME280;57582;-34.876;138.628;2023-03-22T00:31:58;101213;;;26.13;40.17
70198;BME280;57582;-34.876;138.628;2023-03-22T00:34:58;101213;;;26.18;40.31
70198;BME280;57582;-34.876;138.628;2023-03-22T00:37:58;101205;;;26.09;39.88
70198;BME280;57582;-34.876;138.628;2023-03-22T00:41:06;101199;;;26.29;39.54
70198;BME280;57582;-34.876;138.628;2023-03-22T00:43:58;101198;;;26.36;39.34
70198;BME280;57582;-34.876;138.628;2023-03-22T00:46:58;101203;;;26.35;39.42
70198;BME280;57582;-34.876;138.628;2023-03-22T00:49:58;101188;;;26.42;38.78
70198;BME280;57582;-34.876;138.628;2023-03-22T00:52:58;101191;;;26.52;38.80
70198;BME280;57582;-34.876;138.628;2023-03-22T00:55:58;101194;;;26.83;39.68
70198;BME280;57582;-34.876;138.628;2023-03-22T00:58:58;101184;;;26.74;38.36
70198;BME280;57582;-34.876;138.628;2023-03-22T01:01:58;101188;;;26.70;38.66
70198;BME280;57582;-34.876;138.628;2023-03-22T01:04:58;101181;;;26.79;38.57
70198;BME280;57582;-34.876;138.628;2023-03-22T01:08:00;101171;;;26.94;38.99
70198;BME280;57582;-34.876;138.628;2023-03-22T01:10:58;101165;;;26.96;37.31
70198;BME280;57582;-34.876;138.628;2023-03-22T01:13:58;101170;;;27.16;37.46
70198;BME280;57582;-34.876;138.628;2023-03-22T01:17:00;101165;;;27.23;37.45
70198;BME280;57582;-34.876;138.628;2023-03-22T01:19:58;101161;;;27.19;36.45
70198;BME280;57582;-34.876;138.628;2023-03-22T01:22:58;101151;;;27.48;35.81
70198;BME280;57582;-34.876;138.628;2023-03-22T01:25:58;101150;;;27.45;35.67
70198;BME280;57582;-34.876;138.628;2023-03-22T01:28:58;101145;;;27.52;35.57
70198;BME280;57582;-34.876;138.628;2023-03-22T01:31:58;101139;;;27.54;35.38
70198;BME280;57582;-34.876;138.628;2023-03-22T01:34:58;101136;;;27.58;35.18
70198;BME280;57582;-34.876;138.628;2023-03-22T01:37:59;101127;;;27.75;35.98
70198;BME280;57582;-34.876;138.628;2023-03-22T01:40:58;101115;;;27.91;33.36
70198;BME280;57582;-34.876;138.628;2023-03-22T01:44:07;101112;;;27.88;34.22
70198;BME280;57582;-34.876;138.628;2023-03-22T01:46:58;101103;;;28.12;34.18
70198;BME280;57582;-34.876;138.628;2023-03-22T01:49:58;101096;;;28.35;34.34
70198;BME280;57582;-34.876;138.628;2023-03-22T01:52:58;101087;;;28.45;32.93
70198;BME280;57582;-34.876;138.628;2023-03-22T01:55:58;101083;;;28.84;31.05
70198;BME280;57582;-34.876;138.628;2023-03-22T01:58:58;101086;;;28.99;30.96
70198;BME280;57582;-34.876;138.628;2023-03-22T02:01:58;101084;;;29.02;31.92
70198;BME280;57582;-34.876;138.628;2023-03-22T02:04:58;101075;;;28.83;31.51
70198;BME280;57582;-34.876;138.628;2023-03-22T02:07:58;101056;;;29.15;31.05
70198;BME280;57582;-34.876;138.628;2023-03-22T02:10:59;101063;;;29.33;31.45
70198;BME280;57582;-34.876;138.628;2023-03-22T02:17:10;101048;;;29.91;31.13
70198;BME280;57582;-34.876;138.628;2023-03-22T02:41:12;101027;;;30.59;29.56
70198;BME280;57582;-34.876;138.628;2023-03-22T02:47:03;101013;;;30.71;28.09
70198;BME280;57582;-34.876;138.628;2023-03-22T02:56:01;100986;;;31.42;27.96
70198;BME280;57582;-34.876;138.628;2023-03-22T02:58:59;100991;;;31.73;26.06
70198;BME280;57582;-34.876;138.628;2023-03-22T03:01:59;100982;;;30.86;27.13
70198;BME280;57582;-34.876;138.628;2023-03-22T03:04:58;100968;;;31.08;27.80
70198;BME280;57582;-34.876;138.628;2023-03-22T03:07:59;100967;;;31.34;27.58
70198;BME280;57582;-34.876;138.628;2023-03-22T03:10:58;100957;;;31.35;27.49
70198;BME280;57582;-34.876;138.628;2023-03-22T03:13:58;100956;;;31.09;27.48
70198;BME280;57582;-34.876;138.628;2023-03-22T03:26:03;100933;;;32.29;27.31
70198;BME280;57582;-34.876;138.628;2023-03-22T03:29:00;100924;;;32.53;25.74
70198;BME280;57582;-34.876;138.628;2023-03-22T03:32:16;100930;;;31.97;26.83
70198;BME280;57582;-34.876;138.628;2023-03-22T03:35:00;100923;;;32.21;27.30
70198;BME280;57582;-34.876;138.628;2023-03-22T03:38:01;100919;;;32.27;27.85
70198;BME280;57582;-34.876;138.628;2023-03-22T03:41:00;100909;;;32.43;26.78
70198;BME280;57582;-34.876;138.628;2023-03-22T03:43:58;100899;;;32.25;26.57
70198;BME280;57582;-34.876;138.628;2023-03-22T03:46:58;100896;;;32.44;26.84
70198;BME280;57582;-34.876;138.628;2023-03-22T03:49:58;100890;;;32.69;25.95
70198;BME280;57582;-34.876;138.628;2023-03-22T03:52:58;100881;;;32.84;25.81
70198;BME280;57582;-34.876;138.628;2023-03-22T03:55:58;100867;;;33.08;25.78
70198;BME280;57582;-34.876;138.628;2023-03-22T03:58:58;100866;;;32.98;25.56
70198;BME280;57582;-34.876;138.628;2023-03-22T04:01:59;100862;;;33.15;25.50
70198;BME280;57582;-34.876;138.628;2023-03-22T04:04:59;100856;;;33.37;24.97
70198;BME280;57582;-34.876;138.628;2023-03-22T04:07:58;100852;;;33.58;26.34
70198;BME280;57582;-34.876;138.628;2023-03-22T04:10:58;100846;;;33.68;24.69
70198;BME280;57582;-34.876;138.628;2023-03-22T04:14:00;100839;;;33.62;24.39
70198;BME280;57582;-34.876;138.628;2023-03-22T04:16:58;100839;;;33.52;24.67
70198;BME280;57582;-34.876;138.628;2023-03-22T04:19:59;100827;;;33.02;25.15
70198;BME280;57582;-34.876;138.628;2023-03-22T04:22:58;100817;;;32.94;26.37
70198;BME280;57582;-34.876;138.628;2023-03-22T04:25:59;100816;;;33.07;27.09
70198;BME280;57582;-34.876;138.628;2023-03-22T04:28:59;100814;;;32.99;26.40
70198;BME280;57582;-34.876;138.628;2023-03-22T04:31:58;100828;;;33.18;27.22
70198;BME280;57582;-34.876;138.628;2023-03-22T04:34:58;100823;;;33.10;28.45
70198;BME280;57582;-34.876;138.628;2023-03-22T04:37:58;100810;;;33.14;28.67
70198;BME280;57582;-34.876;138.628;2023-03-22T04:40:59;100804;;;33.12;28.07
70198;BME280;57582;-34.876;138.628;2023-03-22T04:43:58;100802;;;33.24;28.24
70198;BME280;57582;-34.876;138.628;2023-03-22T04:46:58;100799;;;33.19;27.97
70198;BME280;57582;-34.876;138.628;2023-03-22T04:49:58;100792;;;33.32;28.32
70198;BME280;57582;-34.876;138.628;2023-03-22T04:52:59;100797;;;33.29;28.35
70198;BME280;57582;-34.876;138.628;2023-03-22T04:55:58;100799;;;33.03;28.79
70198;BME280;57582;-34.876;138.628;2023-03-22T04:58:58;100789;;;32.86;28.84
70198;BME280;57582;-34.876;138.628;2023-03-22T05:01:58;100793;;;32.76;28.98
70198;BME280;57582;-34.876;138.628;2023-03-22T05:04:59;100781;;;32.59;29.23
70198;BME280;57582;-34.876;138.628;2023-03-22T05:07:58;100781;;;32.47;29.04
70198;BME280;57582;-34.876;138.628;2023-03-22T05:11:03;100775;;;32.39;29.20
70198;BME280;57582;-34.876;138.628;2023-03-22T05:13:59;100775;;;32.55;29.01
70198;BME280;57582;-34.876;138.628;2023-03-22T05:16:59;100776;;;32.76;29.06
70198;BME280;57582;-34.876;138.628;2023-03-22T05:19:58;100767;;;33.03;28.21
70198;BME280;57582;-34.876;138.628;2023-03-22T05:22:58;100765;;;33.14;28.38
70198;BME280;57582;-34.876;138.628;2023-03-22T05:25:59;100765;;;33.17;28.08
70198;BME280;57582;-34.876;138.628;2023-03-22T05:28:59;100761;;;33.18;28.19
70198;BME280;57582;-34.876;138.628;2023-03-22T05:31:58;100749;;;33.00;28.23
70198;BME280;57582;-34.876;138.628;2023-03-22T05:34:58;100745;;;32.91;28.03
70198;BME280;57582;-34.876;138.628;2023-03-22T05:37:59;100754;;;32.78;28.12
70198;BME280;57582;-34.876;138.628;2023-03-22T05:40:59;100753;;;32.89;28.10
70198;BME280;57582;-34.876;138.628;2023-03-22T05:43:59;100747;;;32.67;26.92
70198;BME280;57582;-34.876;138.628;2023-03-22T05:46:58;100756;;;32.40;28.80
70198;BME280;57582;-34.876;138.628;2023-03-22T05:49:59;100750;;;32.12;29.42
70198;BME280;57582;-34.876;138.628;2023-03-22T05:52:59;100742;;;32.01;29.54
70198;BME280;57582;-34.876;138.628;2023-03-22T05:55:59;100751;;;31.09;30.02
70198;BME280;57582;-34.876;138.628;2023-03-22T05:58:58;100748;;;30.67;30.83
70198;BME280;57582;-34.876;138.628;2023-03-22T06:01:59;100744;;;30.53;30.83
70198;BME280;57582;-34.876;138.628;2023-03-22T06:04:59;100749;;;30.63;30.85
70198;BME280;57582;-34.876;138.628;2023-03-22T06:07:58;100745;;;30.64;31.26
70198;BME280;57582;-34.876;138.628;2023-03-22T06:10:58;100749;;;30.60;30.61
70198;BME280;57582;-34.876;138.628;2023-03-22T06:13:59;100738;;;30.54;31.10
70198;BME280;57582;-34.876;138.628;2023-03-22T06:16:59;100734;;;30.55;30.65
70198;BME280;57582;-34.876;138.628;2023-03-22T06:19:58;100736;;;30.41;30.64
70198;BME280;57582;-34.876;138.628;2023-03-22T06:22:59;100736;;;30.11;31.35
70198;BME280;57582;-34.876;138.628;2023-03-22T06:25:59;100729;;;29.98;31.48
70198;BME280;57582;-34.876;138.628;2023-03-22T06:28:59;100734;;;29.90;31.70
70198;BME280;57582;-34.876;138.628;2023-03-22T06:31:59;100744;;;29.75;32.24
70198;BME280;57582;-34.876;138.628;2023-03-22T06:34:58;100737;;;30.03;32.13
70198;BME280;57582;-34.876;138.628;2023-03-22T06:37:59;100736;;;30.27;31.53
70198;BME280;57582;-34.876;138.628;2023-03-22T06:40:59;100734;;;30.28;31.15
70198;BME280;57582;-34.876;138.628;2023-03-22T06:43:59;100731;;;30.28;31.20
70198;BME280;57582;-34.876;138.628;2023-03-22T06:46:58;100728;;;30.41;31.11
70198;BME280;57582;-34.876;138.628;2023-03-22T06:49:59;100726;;;30.25;30.65
70198;BME280;57582;-34.876;138.628;2023-03-22T06:52:59;100719;;;30.36;31.25
70198;BME280;57582;-34.876;138.628;2023-03-22T06:55:58;100730;;;30.61;30.27
70198;BME280;57582;-34.876;138.628;2023-03-22T06:58:58;100723;;;30.72;30.67
70198;BME280;57582;-34.876;138.628;2023-03-22T07:01:59;100729;;;30.30;30.72
70198;BME280;57582;-34.876;138.628;2023-03-22T07:04:59;100738;;;30.37;30.61
70198;BME280;57582;-34.876;138.628;2023-03-22T07:07:59;100734;;;30.36;31.15
70198;BME280;57582;-34.876;138.628;2023-03-22T07:10:59;100743;;;30.20;30.89
70198;BME280;57582;-34.876;138.628;2023-03-22T07:13:59;100743;;;30.06;31.29
70198;BME280;57582;-34.876;138.628;2023-03-22T07:16:59;100735;;;30.37;31.61
70198;BME280;57582;-34.876;138.628;2023-03-22T07:19:58;100734;;;30.23;31.46
70198;BME280;57582;-34.876;138.628;2023-03-22T07:22:58;100737;;;30.04;31.86
70198;BME280;57582;-34.876;138.628;2023-03-22T07:25:59;100730;;;30.17;32.67
70198;BME280;57582;-34.876;138.628;2023-03-22T07:28:59;100723;;;30.37;32.94
70198;BME280;57582;-34.876;138.628;2023-03-22T07:31:58;100735;;;30.23;32.80
70198;BME280;57582;-34.876;138.628;2023-03-22T07:34:58;100729;;;29.97;33.49
70198;BME280;57582;-34.876;138.628;2023-03-22T07:37:59;100734;;;29.92;33.40
70198;BME280;57582;-34.876;138.628;2023-03-22T07:40:59;100734;;;30.03;33.30
70198;BME280;57582;-34.876;138.628;2023-03-22T07:43:58;100730;;;29.77;33.69
70198;BME280;57582;-34.876;138.628;2023-03-22T07:46:59;100740;;;29.72;34.01
70198;BME280;57582;-34.876;138.628;2023-03-22T07:49:59;100733;;;29.68;34.21
70198;BME280;57582;-34.876;138.628;2023-03-22T07:52:59;100735;;;29.76;34.15
70198;BME280;57582;-34.876;138.628;2023-03-22T07:55:59;100733;;;29.68;34.35
70198;BME280;57582;-34.876;138.628;2023-03-22T07:58:59;100736;;;29.80;34.42
70198;BME280;57582;-34.876;138.628;2023-03-22T08:01:59;100740;;;29.79;34.31
70198;BME280;57582;-34.876;138.628;2023-03-22T08:04:59;100743;;;29.74;34.63
70198;BME280;57582;-34.876;138.628;2023-03-22T08:07:59;100741;;;29.56;35.06
70198;BME280;57582;-34.876;138.628;2023-03-22T08:10:59;100751;;;29.03;36.00
70198;BME280;57582;-34.876;138.628;2023-03-22T08:13:59;100759;;;29.11;35.91
70198;BME280;57582;-34.876;138.628;2023-03-22T08:16:59;100753;;;29.04;35.95
70198;BME280;57582;-34.876;138.628;2023-03-22T08:19:59;100757;;;28.92;36.04
70198;BME280;57582;-34.876;138.628;2023-03-22T08:22:59;100770;;;29.03;36.32
70198;BME280;57582;-34.876;138.628;2023-03-22T08:25:59;100770;;;29.04;36.01
70198;BME280;57582;-34.876;138.628;2023-03-22T08:28:59;100777;;;29.12;36.00
70198;BME280;57582;-34.876;138.628;2023-03-22T08:31:59;100778;;;29.11;35.96
70198;BME280;57582;-34.876;138.628;2023-03-22T08:34:59;100776;;;28.91;35.92
70198;BME280;57582;-34.876;138.628;2023-03-22T08:37:59;100777;;;28.89;36.15
70198;BME280;57582;-34.876;138.628;2023-03-22T08:40:59;100774;;;28.48;36.91
70198;BME280;57582;-34.876;138.628;2023-03-22T08:43:59;100777;;;28.40;37.16
70198;BME280;57582;-34.876;138.628;2023-03-22T08:46:59;100769;;;28.38;37.29
70198;BME280;57582;-34.876;138.628;2023-03-22T08:49:59;100768;;;28.37;37.62
70198;BME280;57582;-34.876;138.628;2023-03-22T08:53:00;100763;;;28.41;37.83
70198;BME280;57582;-34.876;138.628;2023-03-22T08:55:59;100763;;;28.41;37.58
70198;BME280;57582;-34.876;138.628;2023-03-22T08:58:59;100771;;;28.34;37.37
70198;BME280;57582;-34.876;138.628;2023-03-22T09:01:59;100767;;;28.01;37.83
70198;BME280;57582;-34.876;138.628;2023-03-22T09:04:59;100776;;;27.87;38.13
70198;BME280;57582;-34.876;138.628;2023-03-22T09:07:59;100774;;;27.55;38.90
70198;BME280;57582;-34.876;138.628;2023-03-22T09:10:59;100770;;;27.43;39.09
70198;BME280;57582;-34.876;138.628;2023-03-22T09:13:59;100774;;;27.44;39.06
70198;BME280;57582;-34.876;138.628;2023-03-22T09:17:00;100783;;;27.39;39.29
70198;BME280;57582;-34.876;138.628;2023-03-22T09:19:59;100789;;;27.16;39.77
70198;BME280;57582;-34.876;138.628;2023-03-22T09:22:59;100792;;;27.18;39.83
70198;BME280;57582;-34.876;138.628;2023-03-22T09:26:02;100803;;;27.39;39.99
70198;BME280;57582;-34.876;138.628;2023-03-22T09:28:59;100807;;;27.43;39.58
70198;BME280;57582;-34.876;138.628;2023-03-22T09:31:59;100802;;;27.67;39.35
70198;BME280;57582;-34.876;138.628;2023-03-22T09:34:59;100812;;;27.90;39.05
70198;BME280;57582;-34.876;138.628;2023-03-22T09:37:59;100811;;;28.06;38.90
70198;BME280;57582;-34.876;138.628;2023-03-22T09:41:01;100812;;;28.22;38.48
70198;BME280;57582;-34.876;138.628;2023-03-22T09:44:00;100813;;;28.36;38.81
70198;BME280;57582;-34.876;138.628;2023-03-22T09:46:59;100809;;;28.52;38.14
70198;BME280;57582;-34.876;138.628;2023-03-22T09:50:02;100815;;;28.71;37.93
70198;BME280;57582;-34.876;138.628;2023-03-22T09:52:59;100826;;;28.79;37.32
70198;BME280;57582;-34.876;138.628;2023-03-22T09:59:16;100847;;;29.06;36.68
70198;BME280;57582;-34.876;138.628;2023-03-22T10:02:00;100838;;;29.14;36.62
70198;BME280;57582;-34.876;138.628;2023-03-22T10:08:11;100839;;;29.04;36.41
70198;BME280;57582;-34.876;138.628;2023-03-22T10:10:59;100843;;;28.95;36.62
70198;BME280;57582;-34.876;138.628;2023-03-22T10:17:01;100831;;;28.74;36.89
70198;BME280;57582;-34.876;138.628;2023-03-22T10:22:59;100835;;;28.25;37.45
70198;BME280;57582;-34.876;138.628;2023-03-22T10:25:59;100831;;;28.13;37.66
70198;BME280;57582;-34.876;138.628;2023-03-22T10:29:00;100834;;;28.00;38.15
70198;BME280;57582;-34.876;138.628;2023-03-22T10:32:05;100834;;;27.78;38.50
70198;BME280;57582;-34.876;138.628;2023-03-22T10:34:59;100843;;;27.77;38.55
70198;BME280;57582;-34.876;138.628;2023-03-22T10:38:00;100845;;;27.51;38.89
70198;BME280;57582;-34.876;138.628;2023-03-22T10:40:59;100844;;;27.38;39.35
70198;BME280;57582;-34.876;138.628;2023-03-22T10:44:00;100849;;;27.28;39.45
70198;BME280;57582;-34.876;138.628;2023-03-22T10:46:59;100848;;;27.10;39.79
70198;BME280;57582;-34.876;138.628;2023-03-22T10:50:00;100841;;;26.90;40.44
70198;BME280;57582;-34.876;138.628;2023-03-22T10:53:04;100838;;;26.88;40.45
70198;BME280;57582;-34.876;138.628;2023-03-22T10:55:59;100848;;;26.98;40.30
70198;BME280;57582;-34.876;138.628;2023-03-22T10:58:59;100853;;;26.84;40.43
70198;BME280;57582;-34.876;138.628;2023-03-22T11:01:59;100849;;;26.74;40.65
70198;BME280;57582;-34.876;138.628;2023-03-22T11:05:00;100838;;;26.73;40.47
70198;BME280;57582;-34.876;138.628;2023-03-22T11:07:59;100852;;;26.80;40.44
70198;BME280;57582;-34.876;138.628;2023-03-22T11:10:59;100822;;;26.58;40.58
70198;BME280;57582;-34.876;138.628;2023-03-22T11:17:10;100835;;;26.87;40.35
70198;BME280;57582;-34.876;138.628;2023-03-22T11:20:00;100833;;;26.72;40.60
70198;BME280;57582;-34.876;138.628;2023-03-22T11:23:00;100838;;;26.78;40.63
70198;BME280;57582;-34.876;138.628;2023-03-22T11:26:04;100837;;;26.91;40.10
70198;BME280;57582;-34.876;138.628;2023-03-22T11:29:02;100838;;;26.90;39.88
70198;BME280;57582;-34.876;138.628;2023-03-22T11:31:59;100843;;;26.88;39.76
70198;BME280;57582;-34.876;138.628;2023-03-22T11:35:00;100844;;;26.62;40.27
70198;BME280;57582;-34.876;138.628;2023-03-22T11:38:00;100846;;;26.36;40.76
70198;BME280;57582;-34.876;138.628;2023-03-22T11:41:00;100845;;;25.96;41.55
70198;BME280;57582;-34.876;138.628;2023-03-22T11:44:01;100852;;;25.90;41.81
70198;BME280;57582;-34.876;138.628;2023-03-22T11:47:00;100820;;;25.68;42.02
70198;BME280;57582;-34.876;138.628;2023-03-22T11:49:59;100850;;;25.42;42.84
70198;BME280;57582;-34.876;138.628;2023-03-22T11:53:01;100851;;;25.36;42.92
70198;BME280;57582;-34.876;138.628;2023-03-22T11:56:00;100849;;;25.38;42.78
70198;BME280;57582;-34.876;138.628;2023-03-22T11:59:04;100848;;;25.48;42.69
70198;BME280;57582;-34.876;138.628;2023-03-22T12:02:29;100857;;;25.26;43.12
70198;BME280;57582;-34.876;138.628;2023-03-22T12:11:01;100852;;;25.44;42.80
70198;BME280;57582;-34.876;138.628;2023-03-22T12:14:00;100865;;;25.59;42.58
70198;BME280;57582;-34.876;138.628;2023-03-22T12:17:04;100847;;;25.33;42.93
70198;BME280;57582;-34.876;138.628;2023-03-22T12:22:59;100867;;;25.62;43.33
70198;BME280;57582;-34.876;138.628;2023-03-22T12:26:11;100866;;;25.85;42.80
70198;BME280;57582;-34.876;138.628;2023-03-22T12:32:01;100860;;;26.18;41.97
70198;BME280;57582;-34.876;138.628;2023-03-22T12:34:59;100864;;;26.32;41.44
70198;BME280;57582;-34.876;138.628;2023-03-22T12:38:00;100849;;;26.38;41.48
70198;BME280;57582;-34.876;138.628;2023-03-22T12:41:01;100849;;;26.42;41.04
70198;BME280;57582;-34.876;138.628;2023-03-22T12:47:04;100839;;;26.56;40.26
70198;BME280;57582;-34.876;138.628;2023-03-22T12:50:04;100846;;;26.53;40.27
70198;BME280;57582;-34.876;138.628;2023-03-22T12:53:00;100852;;;26.52;40.13
70198;BME280;57582;-34.876;138.628;2023-03-22T12:55:59;100857;;;26.26;40.37
70198;BME280;57582;-34.876;138.628;2023-03-22T12:59:01;100860;;;25.73;42.25
70198;BME280;57582;-34.876;138.628;2023-03-22T13:05:00;100860;;;25.88;42.02
70198;BME280;57582;-34.876;138.628;2023-03-22T13:07:59;100860;;;25.90;41.51
70198;BME280;57582;-34.876;138.628;2023-03-22T13:11:01;100856;;;25.99;41.09
70198;BME280;57582;-34.876;138.628;2023-03-22T13:13:59;100854;;;25.88;41.44
70198;BME280;57582;-34.876;138.628;2023-03-22T13:16:59;100848;;;25.91;41.51
70198;BME280;57582;-34.876;138.628;2023-03-22T13:23:00;100863;;;26.08;41.71
70198;BME280;57582;-34.876;138.628;2023-03-22T13:26:01;100860;;;26.11;41.71
70198;BME280;57582;-34.876;138.628;2023-03-22T13:29:00;100855;;;26.18;41.37
70198;BME280;57582;-34.876;138.628;2023-03-22T13:31:59;100861;;;26.30;40.90
70198;BME280;57582;-34.876;138.628;2023-03-22T13:34:59;100856;;;26.47;40.25
70198;BME280;57582;-34.876;138.628;2023-03-22T13:38:00;100851;;;26.40;39.73
70198;BME280;57582;-34.876;138.628;2023-03-22T13:41:08;100858;;;25.85;40.69
70198;BME280;57582;-34.876;138.628;2023-03-22T13:44:00;100860;;;25.50;41.43
70198;BME280;57582;-34.876;138.628;2023-03-22T13:47:00;100868;;;25.49;41.49
70198;BME280;57582;-34.876;138.628;2023-03-22T13:50:01;100861;;;24.98;42.40
70198;BME280;57582;-34.876;138.628;2023-03-22T13:53:01;100846;;;24.91;42.64
70198;BME280;57582;-34.876;138.628;2023-03-22T13:56:00;100851;;;24.79;43.10
70198;BME280;57582;-34.876;138.628;2023-03-22T13:59:00;100852;;;24.49;43.93
70198;BME280;57582;-34.876;138.628;2023-03-22T14:05:03;100843;;;24.69;43.71
70198;BME280;57582;-34.876;138.628;2023-03-22T14:07:59;100844;;;24.88;43.36
70198;BME280;57582;-34.876;138.628;2023-03-22T14:11:01;100834;;;25.00;43.11
70198;BME280;57582;-34.876;138.628;2023-03-22T14:14:03;100836;;;24.57;44.11
70198;BME280;57582;-34.876;138.628;2023-03-22T14:17:05;100840;;;23.66;46.29
70198;BME280;57582;-34.876;138.628;2023-03-22T14:19:59;100827;;;23.28;47.18
70198;BME280;57582;-34.876;138.628;2023-03-22T14:26:03;100831;;;23.60;46.71
70198;BME280;57582;-34.876;138.628;2023-03-22T14:29:04;100835;;;23.76;46.07
70198;BME280;57582;-34.876;138.628;2023-03-22T14:32:00;100836;;;23.88;45.75
70198;BME280;57582;-34.876;138.628;2023-03-22T14:35:04;100837;;;23.97;45.42
70198;BME280;57582;-34.876;138.628;2023-03-22T14:38:00;100837;;;24.17;45.15
70198;BME280;57582;-34.876;138.628;2023-03-22T14:41:10;100831;;;24.15;45.06
70198;BME280;57582;-34.876;138.628;2023-03-22T14:44:00;100833;;;23.93;45.55
70198;BME280;57582;-34.876;138.628;2023-03-22T14:47:00;100831;;;24.08;45.31
70198;BME280;57582;-34.876;138.628;2023-03-22T14:50:04;100834;;;24.19;45.17
70198;BME280;57582;-34.876;138.628;2023-03-22T14:52:59;100831;;;24.32;44.77
70198;BME280;57582;-34.876;138.628;2023-03-22T14:56:07;100830;;;24.39;44.54
70198;BME280;57582;-34.876;138.628;2023-03-22T14:59:00;100832;;;24.39;44.13
70198;BME280;57582;-34.876;138.628;2023-03-22T15:02:04;100830;;;23.81;45.45
70198;BME280;57582;-34.876;138.628;2023-03-22T15:05:03;100830;;;23.89;45.32
70198;BME280;57582;-34.876;138.628;2023-03-22T15:08:08;100834;;;23.92;45.33
70198;BME280;57582;-34.876;138.628;2023-03-22T15:11:01;100838;;;23.65;45.95
70198;BME280;57582;-34.876;138.628;2023-03-22T15:14:00;100851;;;23.56;46.11
70198;BME280;57582;-34.876;138.628;2023-03-22T15:17:00;100832;;;23.64;46.02
70198;BME280;57582;-34.876;138.628;2023-03-22T15:19:59;100840;;;23.79;45.93
70198;BME280;57582;-34.876;138.628;2023-03-22T15:23:13;100837;;;23.87;45.50
70198;BME280;57582;-34.876;138.628;2023-03-22T15:26:03;100827;;;23.96;45.28
70198;BME280;57582;-34.876;138.628;2023-03-22T15:29:00;100832;;;23.96;45.24
70198;BME280;57582;-34.876;138.628;2023-03-22T15:32:00;100827;;;23.91;45.31
70198;BME280;57582;-34.876;138.628;2023-03-22T15:35:02;100809;;;23.93;45.30
70198;BME280;57582;-34.876;138.628;2023-03-22T15:38:00;100819;;;23.96;45.22
70198;BME280;57582;-34.876;138.628;2023-03-22T15:41:00;100811;;;23.81;45.26
70198;BME280;57582;-34.876;138.628;2023-03-22T15:44:01;100809;;;23.63;45.83
70198;BME280;57582;-34.876;138.628;2023-03-22T15:47:07;100806;;;23.47;46.26
70198;BME280;57582;-34.876;138.628;2023-03-22T15:50:00;100811;;;23.45;46.34
70198;BME280;57582;-34.876;138.628;2023-03-22T15:53:00;100810;;;23.44;46.39
70198;BME280;57582;-34.876;138.628;2023-03-22T15:55:59;100824;;;23.46;46.37
70198;BME280;57582;-34.876;138.628;2023-03-22T15:59:00;100823;;;23.54;46.30
70198;BME280;57582;-34.876;138.628;2023-03-22T16:02:00;100825;;;23.70;45.93
70198;BME280;57582;-34.876;138.628;2023-03-22T16:05:00;100818;;;23.79;45.75
70198;BME280;57582;-34.876;138.628;2023-03-22T16:07:59;100827;;;23.88;45.57
70198;BME280;57582;-34.876;138.628;2023-03-22T16:10:59;100842;;;23.93;45.50
70198;BME280;57582;-34.876;138.628;2023-03-22T16:14:00;100837;;;23.87;45.66
70198;BME280;57582;-34.876;138.628;2023-03-22T16:17:00;100820;;;23.72;45.82
70198;BME280;57582;-34.876;138.628;2023-03-22T16:19:59;100831;;;23.87;45.79
70198;BME280;57582;-34.876;138.628;2023-03-22T16:23:00;100824;;;23.82;45.89
70198;BME280;57582;-34.876;138.628;2023-03-22T16:26:00;100825;;;23.85;45.91
70198;BME280;57582;-34.876;138.628;2023-03-22T16:29:00;100832;;;23.87;46.03
70198;BME280;57582;-34.876;138.628;2023-03-22T16:31:59;100829;;;23.89;46.01
70198;BME280;57582;-34.876;138.628;2023-03-22T16:34:59;100831;;;23.83;46.20
70198;BME280;57582;-34.876;138.628;2023-03-22T16:38:00;100824;;;23.79;46.24
70198;BME280;57582;-34.876;138.628;2023-03-22T16:41:00;100824;;;23.79;46.26
70198;BME280;57582;-34.876;138.628;2023-03-22T16:43:59;100823;;;23.72;46.43
70198;BME280;57582;-34.876;138.628;2023-03-22T16:46:59;100823;;;23.62;46.98
70198;BME280;57582;-34.876;138.628;2023-03-22T16:50:00;100820;;;23.57;47.04
70198;BME280;57582;-34.876;138.628;2023-03-22T16:53:00;100820;;;23.60;46.95
70198;BME280;57582;-34.876;138.628;2023-03-22T16:55:59;100819;;;23.50;47.41
70198;BME280;57582;-34.876;138.628;2023-03-22T16:58:59;100799;;;23.51;47.27
70198;BME280;57582;-34.876;138.628;2023-03-22T17:02:00;100797;;;23.38;47.48
70198;BME280;57582;-34.876;138.628;2023-03-22T17:05:01;100803;;;23.30;47.58